Time;durP1;ratioP1;P1;durP2;ratioP2;P2;SDS_P1;SDS_P2;PMS_P1;PMS_P2;Temp;Humidity;BMP_temperature;BMP_pressure;BME280_temperature;BME280_humidity;BME280_pressure;Samples;Min_cycle;Max_cycle;Signal;HPM_P1;HPM_P2
2022/03/19 00:01:59;;;;;;;24.40;9.60;;;7.10;99.90;;;;;;5052706;28;20021;-71
2022/03/19 00:04:25;;;;;;;20.70;10.10;;;7.10;99.90;;;;;;5038966;28;20111;-72
2022/03/19 00:06:50;;;;;;;23.95;10.10;;;7.10;99.90;;;;;;5041421;28;20060;-71
2022/03/19 00:09:19;;;;;;;19.73;9.27;;;7.10;99.90;;;;;;5057430;28;20029;-70
2022/03/19 00:11:48;;;;;;;20.92;9.73;;;7.00;99.90;;;;;;5041676;28;20052;-70
2022/03/19 00:14:14;;;;;;;23.52;9.40;;;7.00;99.90;;;;;;5053917;28;20091;-71
2022/03/19 00:16:40;;;;;;;22.10;9.38;;;7.00;99.90;;;;;;5037927;28;20031;-70
2022/03/19 00:19:06;;;;;;;23.67;9.70;;;7.00;99.90;;;;;;5049745;28;20021;-70
2022/03/19 00:21:32;;;;;;;20.38;9.00;;;7.00;99.90;;;;;;5041138;28;20078;-70
2022/03/19 00:23:57;;;;;;;28.25;10.02;;;6.90;99.90;;;;;;5049785;28;20024;-70
2022/03/19 00:26:23;;;;;;;23.65;9.95;;;6.90;99.90;;;;;;5036283;28;20124;-70
2022/03/19 00:28:48;;;;;;;22.27;9.95;;;6.80;99.90;;;;;;5049618;28;20696;-70
2022/03/19 00:31:14;;;;;;;22.88;8.50;;;6.80;99.90;;;;;;5053931;28;20058;-69
2022/03/19 00:33:40;;;;;;;23.45;8.60;;;6.80;99.90;;;;;;5062490;28;20023;-70
2022/03/19 00:36:05;;;;;;;27.73;9.30;;;6.80;99.90;;;;;;5054104;28;20078;-70
2022/03/19 00:38:32;;;;;;;24.73;9.15;;;6.80;99.90;;;;;;5055810;28;20037;-70
2022/03/19 00:40:58;;;;;;;19.77;9.40;;;6.80;99.90;;;;;;5008495;28;20493;-71
2022/03/19 00:43:23;;;;;;;21.50;8.93;;;6.70;99.90;;;;;;5056523;28;20021;-70
2022/03/19 00:45:49;;;;;;;22.00;8.02;;;6.60;99.90;;;;;;5056042;28;20025;-70
2022/03/19 00:48:15;;;;;;;16.83;7.57;;;6.60;99.90;;;;;;5053552;28;20025;-71
2022/03/19 00:50:42;;;;;;;18.83;7.72;;;6.60;99.90;;;;;;5061301;28;20029;-70
2022/03/19 00:53:07;;;;;;;19.58;7.72;;;6.60;99.90;;;;;;5054764;28;20071;-70
2022/03/19 00:55:33;;;;;;;24.75;8.45;;;6.60;99.90;;;;;;5056520;28;20421;-70
2022/03/19 00:57:59;;;;;;;17.33;6.40;;;6.50;99.90;;;;;;5040715;28;20027;-70
2022/03/19 01:00:26;;;;;;;31.60;7.60;;;6.40;99.90;;;;;;5036272;28;20021;-70
2022/03/19 01:02:53;;;;;;;22.73;7.68;;;6.40;99.90;;;;;;5050304;28;20029;-70
2022/03/19 01:05:20;;;;;;;17.23;6.47;;;6.40;99.90;;;;;;5054830;28;20029;-70
2022/03/19 01:07:51;;;;;;;18.33;6.85;;;6.40;99.90;;;;;;5037843;28;20025;-70
2022/03/19 01:10:23;;;;;;;17.98;6.75;;;6.40;99.90;;;;;;5036081;28;20106;-70
2022/03/19 01:12:50;;;;;;;18.60;6.10;;;6.40;99.90;;;;;;5049962;28;20363;-70
2022/03/19 01:15:16;;;;;;;20.67;5.93;;;6.40;99.90;;;;;;5052091;28;20036;-70
2022/03/19 01:17:42;;;;;;;15.68;5.65;;;6.40;99.90;;;;;;5051110;28;20079;-70
2022/03/19 01:20:10;;;;;;;13.35;6.22;;;6.40;99.90;;;;;;5058315;28;20045;-70
2022/03/19 01:22:37;;;;;;;19.30;6.55;;;6.40;99.90;;;;;;5061822;28;20063;-69
2022/03/19 01:25:05;;;;;;;18.70;6.22;;;6.40;99.90;;;;;;5035486;28;20036;-70
2022/03/19 01:27:32;;;;;;;14.88;5.43;;;6.30;99.90;;;;;;5040481;28;20029;-70
2022/03/19 01:29:58;;;;;;;17.67;6.25;;;6.40;99.90;;;;;;5036473;28;20029;-70
2022/03/19 01:32:24;;;;;;;13.27;5.38;;;6.30;99.90;;;;;;5056922;28;20104;-70
2022/03/19 01:34:49;;;;;;;14.43;5.30;;;6.30;99.90;;;;;;5019793;28;20021;-71
2022/03/19 01:37:15;;;;;;;15.77;5.72;;;6.30;99.90;;;;;;5037754;28;20059;-70
2022/03/19 01:39:41;;;;;;;17.23;4.63;;;6.20;99.90;;;;;;5036300;28;20033;-71
2022/03/19 01:42:06;;;;;;;17.05;4.93;;;6.20;99.90;;;;;;5059929;28;20526;-71
2022/03/19 01:44:32;;;;;;;18.55;5.00;;;6.20;99.90;;;;;;5040023;28;20051;-70
2022/03/19 01:47:10;;;;;;;13.07;4.85;;;6.20;99.90;;;;;;5041351;28;20068;-70
2022/03/19 01:49:36;;;;;;;11.75;5.30;;;6.20;99.90;;;;;;5051768;28;20041;-69
2022/03/19 01:52:03;;;;;;;17.20;4.28;;;6.20;99.90;;;;;;5050042;28;20079;-72
2022/03/19 01:54:39;;;;;;;15.07;4.40;;;6.20;99.90;;;;;;5048530;28;20042;-71
2022/03/19 01:57:06;;;;;;;15.75;4.97;;;6.20;99.90;;;;;;5053567;28;20037;-71
2022/03/19 01:59:34;;;;;;;13.35;4.25;;;6.10;99.90;;;;;;5053125;28;20028;-71
2022/03/19 02:02:04;;;;;;;11.68;4.78;;;6.20;99.90;;;;;;5037667;28;20107;-70
2022/03/19 02:04:31;;;;;;;16.35;4.63;;;6.10;99.90;;;;;;5052451;28;20025;-71
2022/03/19 02:06:57;;;;;;;17.02;4.72;;;6.10;99.90;;;;;;5067716;28;20037;-71
2022/03/19 02:09:23;;;;;;;11.63;4.20;;;6.10;99.90;;;;;;5041428;28;20071;-71
2022/03/19 02:11:49;;;;;;;10.88;3.90;;;6.00;99.90;;;;;;5047602;28;20041;-71
2022/03/19 02:14:15;;;;;;;13.95;4.68;;;6.10;99.90;;;;;;5054646;28;20060;-71
2022/03/19 02:16:42;;;;;;;17.02;4.22;;;6.00;99.90;;;;;;5049946;28;20108;-71
2022/03/19 02:19:07;;;;;;;17.00;4.00;;;6.10;99.90;;;;;;5052919;28;20512;-71
2022/03/19 02:21:41;;;;;;;16.83;4.78;;;6.00;99.90;;;;;;5054773;28;20109;-70
2022/03/19 02:26:51;;;;;;;12.50;4.00;;;5.90;99.90;;;;;;5057439;28;20112;-71
2022/03/19 02:29:17;;;;;;;11.05;3.60;;;6.00;99.90;;;;;;5037121;28;20101;-71
2022/03/19 02:31:46;;;;;;;10.85;3.88;;;5.90;99.90;;;;;;5036329;28;20106;-71
2022/03/19 02:34:14;;;;;;;12.43;4.35;;;5.90;99.90;;;;;;5048306;28;20056;-72
2022/03/19 02:36:42;;;;;;;9.20;4.15;;;5.90;99.90;;;;;;5048906;28;20025;-71
2022/03/19 02:39:32;;;;;;;16.02;4.95;;;5.90;99.90;;;;;;5041550;28;20029;-71
2022/03/19 02:42:04;;;;;;;10.18;3.95;;;5.90;99.90;;;;;;5040812;28;20062;-70
2022/03/19 02:44:35;;;;;;;12.13;4.25;;;5.80;99.90;;;;;;5040046;28;20032;-71
2022/03/19 02:47:04;;;;;;;16.17;4.32;;;5.80;99.90;;;;;;5036699;28;20478;-71
2022/03/19 02:49:30;;;;;;;11.88;4.20;;;5.80;99.90;;;;;;5038641;28;20051;-71
2022/03/19 02:51:57;;;;;;;15.90;4.20;;;5.70;99.90;;;;;;5028112;28;20058;-71
2022/03/19 02:54:28;;;;;;;11.05;3.83;;;5.70;99.90;;;;;;5021775;28;20025;-71
2022/03/19 02:56:55;;;;;;;12.30;3.55;;;5.70;99.90;;;;;;5040277;28;20545;-71
2022/03/19 02:59:31;;;;;;;10.43;3.60;;;5.70;99.90;;;;;;5039144;28;20082;-71
2022/03/19 03:02:03;;;;;;;13.43;4.18;;;5.70;99.90;;;;;;5055202;28;20031;-71
2022/03/19 03:04:29;;;;;;;10.82;3.53;;;5.70;99.90;;;;;;5050920;28;20017;-69
2022/03/19 03:06:58;;;;;;;10.15;3.40;;;5.70;99.90;;;;;;5025669;28;20090;-70
2022/03/19 03:09:26;;;;;;;14.00;3.95;;;5.70;99.90;;;;;;5041156;28;20024;-69
2022/03/19 03:11:52;;;;;;;11.80;3.63;;;5.70;99.90;;;;;;5055971;28;20043;-69
2022/03/19 03:14:20;;;;;;;18.85;4.22;;;5.70;99.90;;;;;;5026153;28;20479;-70
2022/03/19 03:16:53;;;;;;;16.05;3.72;;;5.70;99.90;;;;;;5043878;28;20033;-69
2022/03/19 03:19:21;;;;;;;8.35;3.03;;;5.60;99.90;;;;;;5040588;28;20033;-69
2022/03/19 03:21:47;;;;;;;13.15;3.00;;;5.60;99.90;;;;;;5044603;28;20021;-70
2022/03/19 03:24:14;;;;;;;13.35;4.30;;;5.60;99.90;;;;;;5053374;28;20025;-71
2022/03/19 03:26:41;;;;;;;8.45;3.55;;;5.60;99.90;;;;;;5060167;28;20051;-71
2022/03/19 03:29:07;;;;;;;19.20;3.75;;;5.50;99.90;;;;;;5057495;28;20044;-71
2022/03/19 03:31:33;;;;;;;13.07;4.32;;;5.50;99.90;;;;;;5042836;28;20025;-72
2022/03/19 03:34:00;;;;;;;10.15;3.10;;;5.50;99.90;;;;;;5054792;28;20084;-71
2022/03/19 03:36:25;;;;;;;13.27;3.95;;;5.50;99.90;;;;;;5041184;28;20461;-71
2022/03/19 03:38:51;;;;;;;10.57;3.78;;;5.50;99.90;;;;;;5053355;28;20033;-70
2022/03/19 03:41:17;;;;;;;16.95;3.88;;;5.50;99.90;;;;;;5045039;28;20097;-70
2022/03/19 03:43:43;;;;;;;14.52;3.80;;;5.50;99.90;;;;;;5058172;28;20079;-70
2022/03/19 03:46:08;;;;;;;12.75;3.13;;;5.50;99.90;;;;;;5053771;28;20039;-70
2022/03/19 03:48:36;;;;;;;15.75;4.40;;;5.50;99.90;;;;;;5053949;28;20048;-70
2022/03/19 03:51:03;;;;;;;14.60;4.18;;;5.50;99.90;;;;;;5055458;28;20584;-70
2022/03/19 03:53:29;;;;;;;12.00;3.20;;;5.50;99.90;;;;;;5059717;28;20935;-70
2022/03/19 03:55:55;;;;;;;9.93;3.20;;;5.50;99.90;;;;;;5040123;28;20474;-70
2022/03/19 03:58:23;;;;;;;10.43;3.33;;;5.50;99.90;;;;;;5054418;28;20040;-70
2022/03/19 04:00:51;;;;;;;11.75;4.03;;;5.40;99.90;;;;;;5053371;28;20063;-70
2022/03/19 04:03:17;;;;;;;12.38;3.33;;;5.30;99.90;;;;;;5052877;28;20035;-70
2022/03/19 04:05:43;;;;;;;13.77;4.07;;;5.30;99.90;;;;;;5039015;28;20111;-70
2022/03/19 04:08:11;;;;;;;9.75;3.35;;;5.40;99.90;;;;;;5039257;28;20056;-71
2022/03/19 04:10:37;;;;;;;8.93;3.40;;;5.40;99.90;;;;;;5051976;28;20032;-70
2022/03/19 04:13:03;;;;;;;14.65;4.35;;;5.30;99.90;;;;;;5034464;28;20025;-71
2022/03/19 04:15:30;;;;;;;16.13;4.05;;;5.30;99.90;;;;;;5062244;28;20025;-71
2022/03/19 04:17:56;;;;;;;9.48;3.75;;;5.30;99.90;;;;;;5025085;28;20024;-71
2022/03/19 04:20:22;;;;;;;9.95;2.97;;;5.20;99.90;;;;;;5051346;28;20027;-71
2022/03/19 04:22:49;;;;;;;10.30;3.05;;;5.20;99.90;;;;;;5054666;28;20025;-71
2022/03/19 04:25:19;;;;;;;12.20;3.70;;;5.20;99.90;;;;;;5039783;28;20432;-71
2022/03/19 04:27:47;;;;;;;11.38;3.20;;;5.10;99.90;;;;;;5034367;28;20045;-69
2022/03/19 04:30:15;;;;;;;11.05;3.65;;;5.10;99.90;;;;;;5049865;28;20522;-71
2022/03/19 04:32:43;;;;;;;13.85;4.30;;;5.10;99.90;;;;;;5041043;28;20058;-70
2022/03/19 04:37:56;;;;;;;10.57;4.05;;;5.10;99.90;;;;;;5059540;28;20470;-70
2022/03/19 04:40:22;;;;;;;12.43;3.85;;;5.00;99.90;;;;;;5038842;28;20064;-70
2022/03/19 04:42:48;;;;;;;8.90;3.67;;;5.10;99.90;;;;;;5025370;28;20025;-70
2022/03/19 04:45:14;;;;;;;12.48;3.88;;;5.00;99.90;;;;;;5058717;28;20032;-71
2022/03/19 04:47:40;;;;;;;10.25;3.78;;;5.00;99.90;;;;;;5052289;28;20398;-70
2022/03/19 04:50:06;;;;;;;11.88;4.38;;;4.90;99.90;;;;;;5042404;28;20056;-71
2022/03/19 04:52:34;;;;;;;13.75;4.63;;;4.90;99.90;;;;;;5042881;28;20056;-70
2022/03/19 04:55:01;;;;;;;12.68;3.33;;;4.90;99.90;;;;;;5036193;28;20406;-71
2022/03/19 04:57:30;;;;;;;8.90;3.47;;;4.80;99.90;;;;;;5050703;28;20542;-71
2022/03/19 04:59:57;;;;;;;14.93;4.13;;;4.80;99.90;;;;;;5037067;28;20040;-70
2022/03/19 05:02:24;;;;;;;18.10;3.78;;;4.70;99.90;;;;;;5056237;28;20024;-70
2022/03/19 05:04:54;;;;;;;12.43;3.70;;;4.70;99.90;;;;;;5055961;28;20040;-70
2022/03/19 05:07:21;;;;;;;13.68;3.45;;;4.70;99.90;;;;;;5051416;28;20020;-70
2022/03/19 05:12:37;;;;;;;16.67;4.18;;;4.70;99.90;;;;;;5049012;28;20033;-70
2022/03/19 05:15:03;;;;;;;10.55;3.72;;;4.70;99.90;;;;;;5048749;28;20155;-71
2022/03/19 05:17:29;;;;;;;11.98;3.55;;;4.70;99.90;;;;;;5034351;28;20041;-70
2022/03/19 05:19:56;;;;;;;11.45;3.45;;;4.70;99.90;;;;;;5051974;28;20195;-71
2022/03/19 05:22:23;;;;;;;12.85;3.85;;;4.60;99.90;;;;;;5059591;28;20385;-70
2022/03/19 05:24:52;;;;;;;14.73;3.40;;;4.60;99.90;;;;;;5038763;28;20094;-70
2022/03/19 05:27:18;;;;;;;18.67;4.00;;;4.60;99.90;;;;;;5059621;28;20488;-70
2022/03/19 05:29:44;;;;;;;13.85;3.65;;;4.60;99.90;;;;;;5052857;28;20032;-71
2022/03/19 05:32:10;;;;;;;12.32;3.00;;;4.50;99.90;;;;;;5051202;28;20100;-70
2022/03/19 05:34:36;;;;;;;13.98;3.40;;;4.50;99.90;;;;;;5054372;28;20040;-71
2022/03/19 05:37:04;;;;;;;9.38;3.15;;;4.50;99.90;;;;;;5038168;28;20058;-69
2022/03/19 05:39:31;;;;;;;14.30;3.67;;;4.50;99.90;;;;;;5055957;28;20083;-69
2022/03/19 05:41:57;;;;;;;14.02;3.65;;;4.50;99.90;;;;;;5038726;28;20367;-69
2022/03/19 05:44:23;;;;;;;14.75;2.92;;;4.50;99.90;;;;;;5037745;28;20029;-70
2022/03/19 05:46:49;;;;;;;12.15;3.40;;;4.60;99.90;;;;;;5051687;28;20029;-69
2022/03/19 05:49:15;;;;;;;12.80;3.28;;;4.50;99.90;;;;;;5059390;28;20043;-69
2022/03/19 05:51:41;;;;;;;12.43;3.80;;;4.50;99.90;;;;;;5048422;28;20437;-71
2022/03/19 05:54:07;;;;;;;12.13;3.15;;;4.60;99.90;;;;;;5048168;28;20033;-70
2022/03/19 05:56:33;;;;;;;11.07;2.63;;;4.60;99.90;;;;;;5053717;28;20134;-70
2022/03/19 05:58:59;;;;;;;13.15;3.15;;;4.60;99.90;;;;;;5052381;28;20457;-70
2022/03/19 06:01:28;;;;;;;16.75;3.95;;;4.60;99.90;;;;;;5052619;28;20013;-71
2022/03/19 06:03:59;;;;;;;9.55;3.35;;;4.60;99.90;;;;;;5037459;28;20394;-71
2022/03/19 06:06:26;;;;;;;12.93;3.33;;;4.60;99.90;;;;;;5054514;28;20539;-71
2022/03/19 06:08:52;;;;;;;12.80;3.05;;;4.70;99.90;;;;;;5041901;28;20306;-72
2022/03/19 06:11:18;;;;;;;11.80;3.25;;;4.60;99.90;;;;;;5037645;28;20099;-71
2022/03/19 06:13:44;;;;;;;13.32;2.83;;;4.70;99.90;;;;;;5054015;28;20115;-72
2022/03/19 06:16:10;;;;;;;13.65;3.63;;;4.70;99.90;;;;;;5049487;28;20028;-71
2022/03/19 06:18:36;;;;;;;15.57;3.47;;;4.70;99.90;;;;;;5035111;28;20082;-71
2022/03/19 06:21:02;;;;;;;11.27;3.05;;;4.70;99.90;;;;;;5048714;28;20048;-71
2022/03/19 06:23:28;;;;;;;12.02;3.45;;;4.80;99.90;;;;;;5050692;28;20037;-71
2022/03/19 06:25:54;;;;;;;10.88;2.60;;;4.80;99.90;;;;;;5052345;28;20105;-70
2022/03/19 06:28:19;;;;;;;12.98;3.55;;;4.80;99.90;;;;;;5048040;28;20029;-71
2022/03/19 06:30:45;;;;;;;14.35;3.03;;;4.90;99.90;;;;;;5051966;28;20079;-71
2022/03/19 06:33:14;;;;;;;11.40;3.67;;;4.90;99.90;;;;;;5044215;28;20124;-71
2022/03/19 06:38:27;;;;;;;11.93;2.85;;;5.00;99.90;;;;;;5056000;28;20478;-71
2022/03/19 06:40:52;;;;;;;8.75;3.00;;;5.00;99.90;;;;;;5059393;28;20033;-71
2022/03/19 06:43:18;;;;;;;11.35;3.28;;;5.10;99.90;;;;;;5043377;28;20403;-69
2022/03/19 06:45:44;;;;;;;10.93;3.28;;;5.10;99.90;;;;;;5011835;28;20367;-71
2022/03/19 06:48:10;;;;;;;14.27;3.17;;;5.10;99.90;;;;;;5054023;28;20078;-71
2022/03/19 06:50:36;;;;;;;8.68;3.15;;;5.10;99.90;;;;;;5065558;28;20020;-71
2022/03/19 06:53:04;;;;;;;10.52;2.35;;;5.10;99.90;;;;;;5045733;28;20104;-70
2022/03/19 06:55:30;;;;;;;9.95;2.65;;;5.10;99.90;;;;;;5042150;28;20025;-71
2022/03/19 06:57:56;;;;;;;13.30;3.00;;;5.10;99.90;;;;;;5049364;28;20359;-70
2022/03/19 07:00:22;;;;;;;8.63;2.50;;;5.20;99.90;;;;;;5021351;28;20025;-70
2022/03/19 07:02:50;;;;;;;11.98;3.15;;;5.20;99.90;;;;;;5037949;28;20033;-69
2022/03/19 07:05:24;;;;;;;13.98;2.90;;;5.20;99.90;;;;;;5051499;28;20047;-70
2022/03/19 07:07:51;;;;;;;13.23;3.03;;;5.30;99.90;;;;;;5023825;28;20111;-70
2022/03/19 07:10:19;;;;;;;11.50;2.97;;;5.30;99.90;;;;;;5054855;28;20047;-69
2022/03/19 07:12:56;;;;;;;11.90;3.13;;;5.30;99.90;;;;;;5037802;28;20029;-70
2022/03/19 07:15:29;;;;;;;6.18;2.22;;;5.40;99.90;;;;;;5051402;28;20029;-70
2022/03/19 07:17:56;;;;;;;14.32;3.08;;;5.50;99.90;;;;;;5038798;28;20583;-70
2022/03/19 07:20:22;;;;;;;8.60;2.38;;;5.50;99.90;;;;;;5051849;28;20316;-69
2022/03/19 07:23:00;;;;;;;12.38;2.60;;;5.50;99.90;;;;;;5040258;28;20025;-70
2022/03/19 07:25:31;;;;;;;8.18;2.45;;;5.60;99.90;;;;;;5051883;28;20035;-70
2022/03/19 07:27:59;;;;;;;10.68;3.25;;;5.60;99.90;;;;;;5052340;28;20099;-70
2022/03/19 07:30:25;;;;;;;10.70;2.60;;;5.70;99.90;;;;;;5039731;28;20036;-69
2022/03/19 07:32:52;;;;;;;18.40;3.60;;;5.70;99.90;;;;;;5060707;28;20029;-78
2022/03/19 07:35:18;;;;;;;15.02;2.53;;;5.80;99.90;;;;;;5039305;28;20032;-69
2022/03/19 07:37:45;;;;;;;12.13;3.38;;;5.80;99.90;;;;;;5037732;28;20044;-69
2022/03/19 07:41:45;;;;;;;9.73;2.60;;;5.80;99.90;;;;;;5039941;28;20028;-69
2022/03/19 07:43:08;;;;;;;14.82;2.58;;;5.90;99.90;;;;;;5047555;28;20029;-69
2022/03/19 07:45:35;;;;;;;11.20;2.20;;;5.90;99.90;;;;;;5060098;28;20033;-69
2022/03/19 07:48:01;;;;;;;8.75;2.60;;;5.90;99.90;;;;;;5038865;28;20116;-70
2022/03/19 07:50:27;;;;;;;9.40;2.47;;;6.00;99.90;;;;;;5050622;28;20049;-69
2022/03/19 07:52:52;;;;;;;7.18;2.00;;;6.00;99.90;;;;;;5049216;28;20502;-69
2022/03/19 07:55:18;;;;;;;9.48;2.55;;;6.00;99.90;;;;;;5053470;28;20032;-69
2022/03/19 07:57:44;;;;;;;9.30;2.63;;;6.10;99.90;;;;;;5057377;28;20032;-69
2022/03/19 08:00:12;;;;;;;17.35;3.13;;;6.10;99.90;;;;;;5062931;28;20033;-69
2022/03/19 08:02:39;;;;;;;10.13;1.80;;;6.20;99.90;;;;;;5040655;28;20025;-70
2022/03/19 08:05:06;;;;;;;11.90;3.65;;;6.20;99.90;;;;;;5049751;28;20067;-70
2022/03/19 08:07:34;;;;;;;10.98;2.28;;;6.30;99.90;;;;;;5054833;28;20036;-70
2022/03/19 08:09:59;;;;;;;11.30;2.33;;;6.40;99.90;;;;;;5050862;28;20029;-70
2022/03/19 08:12:26;;;;;;;8.88;2.05;;;6.40;99.90;;;;;;5049096;28;20865;-69
2022/03/19 08:14:51;;;;;;;13.77;3.05;;;6.40;99.90;;;;;;5050923;28;20394;-70
2022/03/19 08:17:19;;;;;;;8.63;2.28;;;6.40;99.90;;;;;;5050692;28;20039;-70
2022/03/19 08:19:46;;;;;;;9.98;1.92;;;6.50;99.90;;;;;;5049512;28;20116;-70
2022/03/19 08:22:11;;;;;;;9.60;2.38;;;6.50;99.90;;;;;;5032843;28;20112;-70
2022/03/19 08:24:37;;;;;;;9.20;2.10;;;6.60;99.90;;;;;;5046699;28;20427;-69
2022/03/19 08:27:03;;;;;;;10.10;2.22;;;6.60;99.90;;;;;;5038640;28;20032;-71
2022/03/19 08:29:30;;;;;;;9.05;2.30;;;6.70;99.90;;;;;;5010492;28;20035;-71
2022/03/19 08:31:56;;;;;;;12.32;2.08;;;6.70;99.90;;;;;;5034445;28;20025;-71
2022/03/19 08:34:22;;;;;;;8.18;2.20;;;6.80;99.90;;;;;;5044526;28;20056;-68
2022/03/19 08:36:48;;;;;;;9.90;2.67;;;6.90;99.90;;;;;;5034994;28;20036;-69
2022/03/19 08:41:59;;;;;;;8.25;2.35;;;6.90;99.90;;;;;;5038346;28;20056;-70
2022/03/19 08:44:26;;;;;;;13.13;2.65;;;6.80;99.90;;;;;;5008685;28;20036;-71
2022/03/19 08:46:52;;;;;;;6.05;2.00;;;6.90;99.90;;;;;;5047770;28;20028;-70
2022/03/19 08:49:20;;;;;;;7.97;1.70;;;6.90;99.90;;;;;;5032474;28;20029;-69
2022/03/19 08:51:46;;;;;;;11.02;2.25;;;7.00;99.90;;;;;;5033196;28;20406;-69
2022/03/19 08:54:15;;;;;;;13.57;2.50;;;7.00;99.90;;;;;;5045239;28;20029;-76
2022/03/19 08:56:42;;;;;;;6.93;2.10;;;7.00;99.90;;;;;;5035514;28;20482;-81
2022/03/19 08:59:09;;;;;;;7.40;2.30;;;7.10;99.90;;;;;;5030829;28;20037;-69
2022/03/19 09:01:35;;;;;;;6.15;1.95;;;7.20;99.90;;;;;;5051431;28;20083;-69
2022/03/19 09:04:01;;;;;;;7.78;2.10;;;7.20;99.90;;;;;;5030510;28;20486;-69
2022/03/19 09:06:27;;;;;;;7.22;1.60;;;7.30;99.90;;;;;;5038170;28;22738;-69
2022/03/19 09:08:53;;;;;;;7.40;1.75;;;7.30;99.90;;;;;;5049815;28;20024;-68
2022/03/19 09:11:23;;;;;;;8.35;2.10;;;7.40;99.90;;;;;;5019613;28;20087;-68
2022/03/19 09:13:53;;;;;;;6.00;1.80;;;7.40;99.90;;;;;;5028726;28;20154;-68
2022/03/19 09:16:20;;;;;;;9.07;2.10;;;7.50;99.90;;;;;;5047009;28;20386;-69
2022/03/19 09:18:46;;;;;;;8.80;1.95;;;7.60;99.90;;;;;;5029254;28;20109;-71
2022/03/19 09:21:12;;;;;;;8.52;2.10;;;7.60;99.90;;;;;;5046706;28;20047;-69
2022/03/19 09:23:38;;;;;;;6.70;1.58;;;7.60;99.90;;;;;;5040407;28;20533;-70
2022/03/19 09:26:04;;;;;;;8.68;2.05;;;7.70;99.90;;;;;;5043071;28;20029;-68
2022/03/19 09:28:31;;;;;;;8.75;1.85;;;7.70;99.90;;;;;;5028776;28;20573;-69
2022/03/19 09:30:57;;;;;;;6.85;1.70;;;7.80;99.90;;;;;;5030287;28;20086;-69
2022/03/19 09:33:24;;;;;;;8.88;2.10;;;7.90;99.90;;;;;;5011281;28;20028;-68
2022/03/19 09:35:49;;;;;;;5.43;1.60;;;7.90;99.90;;;;;;5022023;28;20033;-69
2022/03/19 09:38:17;;;;;;;8.73;1.75;;;8.00;99.90;;;;;;5025746;28;20037;-69
2022/03/19 09:40:43;;;;;;;7.05;1.77;;;8.10;99.90;;;;;;5029017;28;20117;-70
2022/03/19 09:43:09;;;;;;;5.65;1.80;;;8.20;99.90;;;;;;5042203;28;20359;-69
2022/03/19 09:45:35;;;;;;;7.40;1.80;;;8.30;99.90;;;;;;5046583;28;20486;-68
2022/03/19 09:48:01;;;;;;;5.47;2.10;;;8.40;99.90;;;;;;5052498;28;20025;-69
2022/03/19 09:50:28;;;;;;;13.38;2.08;;;8.40;99.90;;;;;;5036633;28;20040;-68
2022/03/19 09:52:56;;;;;;;5.32;1.55;;;8.50;99.90;;;;;;5034335;28;20047;-69
2022/03/19 09:55:26;;;;;;;6.18;1.88;;;8.60;99.90;;;;;;5048327;28;20029;-69
2022/03/19 09:57:56;;;;;;;8.77;2.03;;;8.60;99.90;;;;;;5048753;28;20090;-69
2022/03/19 10:00:23;;;;;;;5.85;1.38;;;8.60;99.90;;;;;;5034528;28;20025;-69
2022/03/19 10:03:11;;;;;;;7.10;1.42;;;8.70;99.20;;;;;;5030180;28;20025;-69
2022/03/19 10:08:37;;;;;;;6.70;1.67;;;8.90;98.60;;;;;;5055692;28;20025;-69
2022/03/19 10:11:11;;;;;;;6.55;1.60;;;9.00;97.00;;;;;;5031433;28;20028;-68
2022/03/19 10:13:55;;;;;;;6.57;1.60;;;9.00;96.40;;;;;;5034274;28;20489;-68
2022/03/19 10:16:26;;;;;;;7.20;1.33;;;9.20;98.70;;;;;;5037923;28;20040;-68
2022/03/19 10:18:56;;;;;;;;;;;9.40;97.50;;;;;;5039179;28;20032;-68
2022/03/19 10:21:22;;;;;;;6.22;1.80;;;9.40;95.20;;;;;;5057242;28;19922;-69
2022/03/19 10:23:48;;;;;;;4.70;1.40;;;9.50;95.00;;;;;;5062725;28;20025;-67
2022/03/19 10:26:28;;;;;;;4.82;1.38;;;9.50;93.70;;;;;;5057444;28;20430;-67
2022/03/19 10:29:02;;;;;;;5.75;1.60;;;9.60;93.70;;;;;;5054167;28;20037;-67
2022/03/19 10:31:31;;;;;;;5.28;1.15;;;9.70;93.10;;;;;;5056941;28;20128;-67
2022/03/19 10:33:57;;;;;;;5.10;1.33;;;9.70;91.50;;;;;;5040315;28;20142;-67
2022/03/19 10:36:31;;;;;;;4.85;1.58;;;10.00;93.50;;;;;;5051341;28;20111;-66
2022/03/19 10:38:57;;;;;;;8.98;1.17;;;10.30;93.00;;;;;;5024720;28;20029;-68
2022/03/19 10:41:23;;;;;;;5.82;1.08;;;10.40;90.60;;;;;;5023684;28;20025;-67
2022/03/19 10:43:49;;;;;;;8.10;1.55;;;10.60;91.50;;;;;;5038344;28;20497;-68
2022/03/19 10:46:18;;;;;;;5.50;1.33;;;10.80;91.30;;;;;;5057514;28;20029;-71
2022/03/19 10:48:53;;;;;;;3.72;1.10;;;11.10;88.20;;;;;;5051846;28;20449;-68
2022/03/19 10:51:21;;;;;;;6.13;1.25;;;11.00;86.70;;;;;;5054720;28;20558;-67
2022/03/19 10:53:49;;;;;;;5.13;1.02;;;11.00;86.00;;;;;;5039768;28;20487;-69
2022/03/19 10:56:15;;;;;;;5.20;1.38;;;11.10;82.00;;;;;;5053115;28;20044;-67
2022/03/19 10:58:41;;;;;;;5.65;1.30;;;10.80;80.60;;;;;;5051815;28;20033;-69
2022/03/19 11:01:07;;;;;;;1.95;1.00;;;10.70;77.80;;;;;;5057323;28;20556;-68
2022/03/19 11:03:38;;;;;;;5.70;1.10;;;10.50;77.00;;;;;;5053577;28;20035;-69
2022/03/19 11:06:05;;;;;;;11.23;1.70;;;10.30;77.20;;;;;;5051649;28;20032;-68
2022/03/19 11:08:38;;;;;;;6.20;1.10;;;10.40;77.00;;;;;;5042806;28;20047;-69
2022/03/19 11:11:34;;;;;;;2.88;1.00;;;10.50;76.20;;;;;;5045261;28;20025;-68
2022/03/19 11:14:02;;;;;;;4.47;1.10;;;10.80;75.20;;;;;;5038555;28;20033;-68
2022/03/19 11:16:39;;;;;;;5.85;0.98;;;11.30;75.80;;;;;;5047885;28;20554;-68
2022/03/19 11:19:05;;;;;;;11.68;1.73;;;13.00;74.40;;;;;;5050536;28;20032;-65
2022/03/19 11:21:32;;;;;;;4.65;1.67;;;15.60;64.40;;;;;;5023184;28;20205;-67
2022/03/19 11:24:22;;;;;;;3.30;1.05;;;18.00;55.50;;;;;;5049178;28;20056;-67
2022/03/19 11:26:49;;;;;;;4.47;1.45;;;18.30;47.50;;;;;;5050533;28;20115;-67
2022/03/19 11:29:16;;;;;;;3.97;1.33;;;17.40;48.70;;;;;;5052268;28;20375;-66
2022/03/19 11:31:43;;;;;;;3.42;1.08;;;16.90;49.60;;;;;;5039561;28;20122;-67
2022/03/19 11:34:19;;;;;;;3.38;1.00;;;17.40;49.30;;;;;;5039756;28;20041;-66
2022/03/19 11:36:54;;;;;;;2.60;1.33;;;19.90;44.80;;;;;;5053023;28;20033;-65
2022/03/19 11:39:20;;;;;;;2.15;0.90;;;23.60;37.00;;;;;;5036480;28;20052;-62
2022/03/19 11:41:50;;;;;;;6.72;1.30;;;26.10;32.90;;;;;;5048135;28;21330;-67
2022/03/19 11:44:20;;;;;;;4.32;1.40;;;27.70;30.40;;;;;;5045189;28;20028;-68
2022/03/19 11:46:58;;;;;;;3.80;1.40;;;28.70;29.80;;;;;;5037835;28;20021;-68
2022/03/19 11:49:46;;;;;;;3.83;1.70;;;29.70;28.60;;;;;;5027123;28;20101;-64
2022/03/19 11:52:27;;;;;;;3.20;1.45;;;30.40;27.90;;;;;;5047708;28;20032;-67
2022/03/19 11:55:04;;;;;;;3.85;1.40;;;30.50;28.00;;;;;;5047794;28;20044;-67
2022/03/19 11:57:45;;;;;;;4.70;1.83;;;30.40;28.30;;;;;;5050465;28;20087;-66
2022/03/19 12:00:14;;;;;;;4.85;1.38;;;30.50;28.10;;;;;;5031224;28;20041;-67
2022/03/19 12:03:12;;;;;;;3.50;1.70;;;30.60;27.50;;;;;;5035532;28;20032;-66
2022/03/19 12:05:44;;;;;;;2.95;1.30;;;30.90;27.90;;;;;;5048389;28;20587;-65
2022/03/19 12:08:12;;;;;;;3.15;1.40;;;30.40;27.30;;;;;;5017144;28;20367;-66
2022/03/19 12:11:14;;;;;;;3.83;1.30;;;29.70;27.70;;;;;;5051793;28;20029;-66
2022/03/19 12:13:42;;;;;;;5.30;1.75;;;29.60;28.10;;;;;;4940619;28;20098;-66
2022/03/19 12:16:08;;;;;;;4.13;1.30;;;29.20;28.00;;;;;;4953312;28;20038;-65
2022/03/19 12:18:42;;;;;;;5.65;2.03;;;26.90;29.20;;;;;;4938584;28;20031;-66
2022/03/19 12:21:10;;;;;;;3.15;1.52;;;24.80;31.90;;;;;;4955455;28;20031;-65
2022/03/19 12:23:49;;;;;;;2.97;1.30;;;24.80;32.00;;;;;;4956364;28;20047;-65
2022/03/19 12:26:16;;;;;;;3.22;1.20;;;24.90;32.20;;;;;;4955446;28;20058;-65
2022/03/19 12:28:46;;;;;;;3.42;1.58;;;24.70;31.80;;;;;;4938132;28;20031;-63
2022/03/19 12:31:14;;;;;;;2.72;1.48;;;24.20;32.50;;;;;;4923921;28;20314;-62
2022/03/19 12:33:40;;;;;;;3.70;1.50;;;24.40;32.60;;;;;;4950654;28;20059;-62
2022/03/19 12:36:17;;;;;;;5.05;1.73;;;24.30;32.50;;;;;;4954812;28;20449;-64
2022/03/19 12:38:43;;;;;;;5.97;1.60;;;23.80;32.80;;;;;;4952193;28;20409;-63
2022/03/19 12:41:28;;;;;;;4.38;1.30;;;22.40;35.20;;;;;;4953914;28;20043;-63
2022/03/19 12:43:59;;;;;;;3.25;1.25;;;21.20;37.60;;;;;;4932126;28;20129;-65
2022/03/19 12:46:33;;;;;;;4.55;1.90;;;20.10;39.50;;;;;;4930043;28;20115;-62
2022/03/19 12:49:07;;;;;;;6.10;1.80;;;19.20;41.30;;;;;;4986081;28;20127;-62
2022/03/19 12:51:36;;;;;;;4.85;1.67;;;18.20;42.40;;;;;;5033333;28;20036;-60
2022/03/19 12:54:34;;;;;;;3.70;1.45;;;17.30;44.10;;;;;;5047927;28;20033;-63
2022/03/19 12:57:11;;;;;;;6.18;1.75;;;16.60;46.10;;;;;;5013376;28;20028;-77
2022/03/19 12:59:37;;;;;;;4.05;1.60;;;15.90;48.40;;;;;;5034994;28;20438;-73
2022/03/19 13:02:03;;;;;;;4.15;1.67;;;14.80;50.90;;;;;;5048455;28;20035;-73
2022/03/19 13:04:31;;;;;;;4.45;1.73;;;13.90;52.90;;;;;;5051459;28;20031;-74
2022/03/19 13:06:58;;;;;;;3.60;1.63;;;13.30;54.50;;;;;;5040795;28;20415;-71
2022/03/19 13:09:31;;;;;;;5.68;2.03;;;12.80;55.60;;;;;;5033219;28;20387;-72
2022/03/19 13:11:58;;;;;;;5.40;1.65;;;12.50;56.70;;;;;;5014272;28;20048;-72
2022/03/19 13:14:24;;;;;;;4.13;1.92;;;12.20;58.10;;;;;;5051263;28;20037;-72